Time;durP1;ratioP1;P1;durP2;ratioP2;P2;SDS_P1;SDS_P2;PMS_P1;PMS_P2;Temp;Humidity;BMP_temperature;BMP_pressure;BME280_temperature;BME280_humidity;BME280_pressure;Samples;Min_cycle;Max_cycle;Signal;HPM_P1;HPM_P2
2021/08/07 00:00:55;;;;;;;2.90;1.70;;;24.10;57.70;;;;;;3097744;28;20050;-78
2021/08/07 00:02:27;;;;;;;2.38;1.70;;;24.10;57.60;;;;;;3098990;28;20047;-78
2021/08/07 00:03:58;;;;;;;2.50;1.50;;;24.00;57.70;;;;;;3098787;28;20046;-78
2021/08/07 00:05:30;;;;;;;1.90;1.30;;;24.00;57.70;;;;;;3098336;28;20468;-78
2021/08/07 00:07:02;;;;;;;3.38;1.52;;;23.90;57.80;;;;;;3098876;28;20419;-78
2021/08/07 00:08:35;;;;;;;2.83;1.80;;;23.90;57.80;;;;;;3098555;28;20058;-78
2021/08/07 00:10:08;;;;;;;2.10;1.38;;;24.00;57.50;;;;;;3098746;28;20540;-78
2021/08/07 00:11:40;;;;;;;2.63;1.55;;;24.10;57.50;;;;;;3098828;28;20050;-78
2021/08/07 00:13:12;;;;;;;2.05;1.42;;;24.00;57.50;;;;;;3099088;28;20046;-78
2021/08/07 00:14:43;;;;;;;1.40;1.30;;;24.00;57.70;;;;;;3098423;28;20050;-78
2021/08/07 00:16:15;;;;;;;2.70;1.48;;;23.90;57.70;;;;;;3089158;28;20431;-78
2021/08/07 00:17:47;;;;;;;1.67;1.48;;;23.90;57.80;;;;;;3101409;28;20137;-78
2021/08/07 00:19:19;;;;;;;1.55;1.45;;;23.80;58.00;;;;;;3101211;28;20606;-78
2021/08/07 00:20:51;;;;;;;4.15;1.70;;;23.80;58.00;;;;;;3100784;28;20504;-79
2021/08/07 00:22:22;;;;;;;3.97;1.70;;;23.70;58.00;;;;;;3101605;28;20046;-78
2021/08/07 00:23:55;;;;;;;2.13;1.55;;;23.80;58.10;;;;;;3101260;28;20297;-78
2021/08/07 00:25:27;;;;;;;1.50;1.40;;;23.80;57.90;;;;;;3100850;28;20050;-78
2021/08/07 00:26:59;;;;;;;2.72;1.63;;;23.80;58.00;;;;;;3101186;28;20053;-78
2021/08/07 00:28:30;;;;;;;2.33;1.52;;;23.80;57.80;;;;;;3101433;28;20407;-78
2021/08/07 00:30:02;;;;;;;3.50;1.40;;;23.80;57.90;;;;;;3100507;28;20046;-78
2021/08/07 00:31:34;;;;;;;3.35;1.58;;;23.80;57.90;;;;;;3100447;28;20492;-78
2021/08/07 00:33:06;;;;;;;3.85;1.50;;;23.80;57.90;;;;;;3101126;28;20058;-78
2021/08/07 00:34:37;;;;;;;1.40;1.30;;;23.80;58.00;;;;;;3100997;28;20046;-78
2021/08/07 00:36:09;;;;;;;2.95;1.45;;;24.00;57.80;;;;;;3101213;28;20057;-78
2021/08/07 00:40:59;;;;;;;3.97;1.40;;;23.80;57.90;;;;;;3076759;28;20490;-78
2021/08/07 00:42:44;;;;;;;2.22;1.35;;;23.80;58.10;;;;;;3101629;28;20050;-78
2021/08/07 00:49:48;;;;;;;2.00;1.30;;;23.70;58.00;;;;;;2305372;27;25600351;-77
2021/08/07 01:07:05;;;;;;;1.63;1.52;;;23.70;57.90;;;;;;3169906;28;20040;-77
2021/08/07 01:08:39;;;;;;;2.35;1.50;;;23.60;57.90;;;;;;3172109;28;20055;-77
2021/08/07 01:10:13;;;;;;;1.98;1.40;;;23.70;58.00;;;;;;3172253;28;20050;-77
2021/08/07 01:11:46;;;;;;;1.98;1.40;;;23.70;57.90;;;;;;3184213;28;20758;-77
2021/08/07 01:13:20;;;;;;;2.60;1.60;;;23.60;57.90;;;;;;3184824;28;20043;-77
2021/08/07 01:14:52;;;;;;;1.73;1.30;;;23.60;58.20;;;;;;3187123;28;20076;-77
2021/08/07 01:16:26;;;;;;;3.70;1.50;;;23.60;58.00;;;;;;3183133;28;20073;-77
2021/08/07 01:17:57;;;;;;;1.70;1.38;;;23.70;58.00;;;;;;3184257;28;20047;-77
2021/08/07 01:19:31;;;;;;;4.55;1.55;;;23.70;58.00;;;;;;3184579;28;20051;-77
2021/08/07 01:21:03;;;;;;;2.95;1.40;;;23.70;57.90;;;;;;3183705;27;20065;-77
2021/08/07 01:22:42;;;;;;;3.80;1.58;;;23.70;57.70;;;;;;3184507;28;20058;-77
2021/08/07 01:24:15;;;;;;;4.40;1.20;;;23.60;57.90;;;;;;3184368;28;20059;-77
2021/08/07 01:25:51;;;;;;;2.95;1.60;;;23.50;58.10;;;;;;3184307;27;20047;-77
2021/08/07 01:27:25;;;;;;;2.45;1.40;;;23.50;58.10;;;;;;3185017;28;20051;-77
2021/08/07 01:28:58;;;;;;;3.95;1.35;;;23.50;58.00;;;;;;3183904;28;20048;-77
2021/08/07 01:30:30;;;;;;;2.22;1.35;;;23.60;57.70;;;;;;3175315;28;20039;-77
2021/08/07 01:32:01;;;;;;;2.65;1.30;;;23.70;57.70;;;;;;3184477;28;20055;-76
2021/08/07 01:33:33;;;;;;;2.10;1.52;;;23.70;57.70;;;;;;3183974;28;20046;-77
2021/08/07 01:35:05;;;;;;;1.55;1.33;;;23.70;57.70;;;;;;3183905;28;20047;-77
2021/08/07 01:36:37;;;;;;;1.63;1.40;;;23.60;57.90;;;;;;3182991;27;20092;-77
2021/08/07 01:38:09;;;;;;;1.48;1.23;;;23.50;58.10;;;;;;3183752;28;20051;-76
2021/08/07 01:39:44;;;;;;;1.65;1.02;;;23.70;57.80;;;;;;3183592;28;20398;-78
2021/08/07 01:41:17;;;;;;;2.45;1.50;;;23.70;57.80;;;;;;3182986;27;20047;-77
2021/08/07 01:42:50;;;;;;;7.03;1.42;;;23.70;57.70;;;;;;3183710;28;20047;-77
2021/08/07 01:44:21;;;;;;;2.30;1.30;;;23.70;57.70;;;;;;3184246;28;20466;-78
2021/08/07 01:45:53;;;;;;;2.10;1.35;;;23.70;57.80;;;;;;3182687;28;20051;-77
2021/08/07 01:47:28;;;;;;;1.48;1.27;;;23.70;57.80;;;;;;3184434;28;20097;-78
2021/08/07 01:49:06;;;;;;;1.73;1.35;;;23.60;57.60;;;;;;3181946;28;20044;-78
2021/08/07 01:50:39;;;;;;;5.03;1.50;;;23.40;58.20;;;;;;3178199;28;20051;-77
2021/08/07 01:52:15;;;;;;;3.60;1.45;;;23.40;58.60;;;;;;3170559;28;20062;-78
2021/08/07 01:53:48;;;;;;;4.50;1.30;;;23.40;58.70;;;;;;3170670;28;20101;-77
2021/08/07 01:55:23;;;;;;;4.15;1.40;;;23.40;58.90;;;;;;3178797;27;20039;-76
2021/08/07 01:56:54;;;;;;;4.18;1.30;;;23.30;59.00;;;;;;3183563;28;20043;-77
2021/08/07 01:58:29;;;;;;;5.55;1.58;;;23.30;59.10;;;;;;3181897;28;20055;-77
2021/08/07 02:00:01;;;;;;;1.83;1.40;;;23.30;59.10;;;;;;3181322;28;20264;-75
2021/08/07 02:01:33;;;;;;;1.63;1.30;;;23.30;59.20;;;;;;3186232;27;20043;-77
2021/08/07 02:03:05;;;;;;;2.97;1.27;;;23.30;59.20;;;;;;3182451;28;20058;-77
2021/08/07 02:04:37;;;;;;;2.22;1.10;;;23.40;59.00;;;;;;3178098;28;20134;-78
2021/08/07 02:06:10;;;;;;;1.80;1.30;;;23.40;59.60;;;;;;3173599;27;20051;-77
2021/08/07 02:07:41;;;;;;;2.30;1.20;;;23.40;59.00;;;;;;3174282;28;20047;-78
2021/08/07 02:09:13;;;;;;;4.22;1.50;;;23.50;58.90;;;;;;3174239;28;20521;-77
2021/08/07 02:10:46;;;;;;;3.40;1.40;;;23.50;58.70;;;;;;3173293;27;20518;-77
2021/08/07 02:12:17;;;;;;;;;;;23.50;58.70;;;;;;3174663;28;20044;-78
2021/08/07 02:13:50;;;;;;;4.32;1.33;;;23.50;58.50;;;;;;3174340;28;19920;-77
2021/08/07 02:15:22;;;;;;;3.15;1.20;;;23.50;58.70;;;;;;3172904;28;20445;-76
2021/08/07 02:16:54;;;;;;;2.78;1.40;;;23.50;58.70;;;;;;3174351;28;20051;-78
2021/08/07 02:18:26;;;;;;;3.55;1.30;;;23.50;58.70;;;;;;3173978;28;20051;-78
2021/08/07 02:19:57;;;;;;;2.47;1.48;;;23.50;58.80;;;;;;3174185;28;20425;-78
2021/08/07 02:21:29;;;;;;;1.95;1.40;;;23.50;58.70;;;;;;3173448;27;20047;-78
2021/08/07 02:23:01;;;;;;;1.90;1.35;;;23.60;58.50;;;;;;3174318;28;20047;-78
2021/08/07 02:24:32;;;;;;;2.05;1.27;;;23.60;58.50;;;;;;3174226;28;20051;-78
2021/08/07 02:26:05;;;;;;;2.28;1.50;;;23.50;58.50;;;;;;3173608;27;20055;-78
2021/08/07 02:27:37;;;;;;;1.40;1.20;;;23.50;58.50;;;;;;3174082;28;20062;-78
2021/08/07 02:29:10;;;;;;;4.80;1.50;;;23.50;58.50;;;;;;3172020;28;20047;-77
2021/08/07 02:30:40;;;;;;;2.55;1.00;;;23.70;58.30;;;;;;3166587;28;20055;-78
2021/08/07 02:32:12;;;;;;;3.88;1.42;;;23.60;58.40;;;;;;3173900;28;20050;-77
2021/08/07 02:33:44;;;;;;;4.00;1.35;;;23.60;58.40;;;;;;3174400;28;20052;-77
2021/08/07 02:35:16;;;;;;;2.28;1.42;;;23.70;58.30;;;;;;3174144;28;20047;-77
2021/08/07 02:36:48;;;;;;;3.75;1.27;;;23.80;58.10;;;;;;3174362;28;20058;-78
2021/08/07 02:38:19;;;;;;;3.75;1.30;;;23.70;58.10;;;;;;3174729;28;20043;-78
2021/08/07 02:39:51;;;;;;;5.10;1.55;;;23.70;58.10;;;;;;3174738;28;20048;-78
2021/08/07 02:41:22;;;;;;;3.35;1.30;;;23.80;58.20;;;;;;3173937;28;20047;-78
2021/08/07 02:42:54;;;;;;;2.95;1.50;;;23.70;58.10;;;;;;3174892;28;20506;-76
2021/08/07 02:44:27;;;;;;;3.45;1.30;;;23.80;58.00;;;;;;3162324;28;20048;-78
2021/08/07 02:45:59;;;;;;;1.55;1.33;;;23.80;57.80;;;;;;3170255;28;20051;-78
2021/08/07 02:47:31;;;;;;;6.68;1.42;;;23.80;57.90;;;;;;3174881;28;20055;-77
2021/08/07 02:49:02;;;;;;;3.97;1.50;;;23.80;57.80;;;;;;3174784;28;20069;-77
2021/08/07 02:50:34;;;;;;;2.78;1.20;;;23.80;57.80;;;;;;3174394;28;20121;-79
2021/08/07 02:52:06;;;;;;;2.83;1.30;;;23.80;57.70;;;;;;3174767;28;20052;-78
2021/08/07 02:53:37;;;;;;;2.92;1.20;;;23.70;57.60;;;;;;3174806;28;20389;-78
2021/08/07 02:55:10;;;;;;;5.57;1.40;;;23.70;57.70;;;;;;3175084;28;20044;-77
2021/08/07 02:56:41;;;;;;;4.72;1.23;;;23.70;57.70;;;;;;3174701;28;20051;-78
2021/08/07 02:58:13;;;;;;;2.58;1.33;;;23.70;57.70;;;;;;3172678;28;20513;-77
2021/08/07 02:59:46;;;;;;;2.95;1.35;;;23.80;58.30;;;;;;3168860;28;20043;-78
2021/08/07 03:01:18;;;;;;;3.03;1.20;;;23.70;57.60;;;;;;3161508;28;20048;-78
2021/08/07 03:02:50;;;;;;;1.92;1.30;;;23.80;57.60;;;;;;3161545;28;20047;-77
2021/08/07 03:04:21;;;;;;;2.83;1.40;;;23.80;57.50;;;;;;3162001;28;20063;-77
2021/08/07 03:05:53;;;;;;;2.35;1.30;;;23.80;57.50;;;;;;3161916;28;20584;-78
2021/08/07 03:07:25;;;;;;;3.30;1.40;;;23.70;57.50;;;;;;3162348;28;20052;-78
2021/08/07 03:08:56;;;;;;;3.85;1.20;;;23.80;57.60;;;;;;3162277;28;20051;-77
2021/08/07 03:10:28;;;;;;;2.17;1.33;;;23.70;57.60;;;;;;3161577;28;20423;-77
2021/08/07 03:12:00;;;;;;;2.00;1.27;;;23.70;57.60;;;;;;3162615;28;20055;-76
2021/08/07 03:13:31;;;;;;;3.15;1.30;;;23.70;57.60;;;;;;3162108;28;20375;-77
2021/08/07 03:15:05;;;;;;;2.88;1.30;;;23.70;57.60;;;;;;3162388;28;20040;-78
2021/08/07 03:16:37;;;;;;;1.80;1.40;;;23.60;57.50;;;;;;3160403;28;20047;-78
2021/08/07 03:18:08;;;;;;;1.98;1.40;;;23.60;57.70;;;;;;3161968;28;20483;-78
2021/08/07 03:19:40;;;;;;;1.90;1.10;;;23.60;57.70;;;;;;3162654;28;20044;-76
2021/08/07 03:21:12;;;;;;;2.13;1.20;;;23.60;57.60;;;;;;3162099;28;20403;-79
2021/08/07 03:22:43;;;;;;;3.58;1.38;;;23.60;57.70;;;;;;3162085;28;20048;-78
2021/08/07 03:24:15;;;;;;;3.15;1.13;;;23.70;57.70;;;;;;3168442;28;20059;-77
2021/08/07 03:25:47;;;;;;;2.30;1.27;;;23.60;57.60;;;;;;3160231;28;20052;-77
2021/08/07 03:27:18;;;;;;;3.72;1.42;;;23.60;57.70;;;;;;3160622;28;20051;-77
2021/08/07 03:28:50;;;;;;;3.15;1.30;;;23.60;57.70;;;;;;3168404;28;20047;-78
2021/08/07 03:30:23;;;;;;;1.60;1.25;;;23.60;57.70;;;;;;3163468;28;20570;-77
2021/08/07 03:31:54;;;;;;;3.40;1.40;;;23.60;57.60;;;;;;3173321;28;20051;-77
2021/08/07 03:33:26;;;;;;;1.85;1.30;;;23.70;57.60;;;;;;3173873;28;20047;-78
2021/08/07 03:34:58;;;;;;;1.50;1.08;;;23.60;57.70;;;;;;3173669;28;20086;-77
2021/08/07 03:36:29;;;;;;;3.00;1.40;;;23.70;57.60;;;;;;3173155;28;20082;-76
2021/08/07 03:38:01;;;;;;;2.90;1.55;;;23.70;57.60;;;;;;3173748;28;20054;-77
2021/08/07 03:39:33;;;;;;;1.98;1.30;;;23.70;57.70;;;;;;3173899;28;20054;-78
2021/08/07 03:41:04;;;;;;;1.40;1.10;;;23.70;57.60;;;;;;3172848;28;20494;-77
2021/08/07 03:42:37;;;;;;;5.70;1.20;;;23.70;57.50;;;;;;3174179;28;20077;-77
2021/08/07 03:44:08;;;;;;;3.78;1.50;;;23.70;57.60;;;;;;3173846;28;20040;-78
2021/08/07 03:45:41;;;;;;;3.95;1.17;;;23.60;57.60;;;;;;3166068;28;20044;-78
2021/08/07 03:47:14;;;;;;;2.97;1.30;;;23.60;57.60;;;;;;3160978;28;20052;-78
2021/08/07 03:48:46;;;;;;;2.00;1.10;;;23.60;57.60;;;;;;3161336;28;20060;-77
2021/08/07 03:50:18;;;;;;;3.15;1.40;;;23.70;57.50;;;;;;3171763;28;20065;-77
2021/08/07 03:51:49;;;;;;;1.90;1.67;;;23.60;57.60;;;;;;3173014;28;20490;-78
2021/08/07 03:53:21;;;;;;;3.50;1.27;;;23.60;57.70;;;;;;3174048;28;20081;-77
2021/08/07 03:54:52;;;;;;;1.85;1.35;;;23.50;57.80;;;;;;3173855;28;20051;-78
2021/08/07 03:56:24;;;;;;;1.38;1.05;;;23.50;57.90;;;;;;3173481;28;20059;-78
2021/08/07 03:57:58;;;;;;;1.73;1.20;;;23.60;57.70;;;;;;3173646;28;20075;-78
2021/08/07 03:59:30;;;;;;;2.10;1.13;;;23.50;57.70;;;;;;3161419;28;20127;-78
2021/08/07 04:01:03;;;;;;;2.50;1.40;;;23.50;57.70;;;;;;3169093;28;20048;-78
2021/08/07 04:02:34;;;;;;;2.75;1.50;;;23.60;57.70;;;;;;3174216;28;20066;-76
2021/08/07 04:04:07;;;;;;;2.75;1.30;;;23.50;57.70;;;;;;3174009;28;20051;-78
2021/08/07 04:05:39;;;;;;;;;;;23.50;57.70;;;;;;3174654;28;20058;-77
2021/08/07 04:07:10;;;;;;;3.03;1.30;;;23.40;57.90;;;;;;3174277;28;19919;-78
2021/08/07 04:08:42;;;;;;;1.42;1.30;;;23.50;57.80;;;;;;3174442;28;20055;-78
2021/08/07 04:10:14;;;;;;;2.30;1.30;;;23.50;57.80;;;;;;3174462;28;20044;-78
2021/08/07 04:11:45;;;;;;;2.30;1.30;;;23.60;57.70;;;;;;3174382;28;20059;-78
2021/08/07 04:13:17;;;;;;;2.35;1.23;;;23.50;57.60;;;;;;3174426;28;20059;-77
2021/08/07 04:14:49;;;;;;;2.38;1.35;;;23.60;57.60;;;;;;3174314;28;20047;-78
2021/08/07 04:16:22;;;;;;;1.95;1.20;;;23.50;57.80;;;;;;3173183;28;20054;-78
2021/08/07 04:17:53;;;;;;;1.52;1.25;;;23.50;57.80;;;;;;3173841;28;20059;-77
2021/08/07 04:19:25;;;;;;;2.88;1.55;;;23.50;57.90;;;;;;3174252;28;20651;-78
2021/08/07 04:20:56;;;;;;;2.88;1.50;;;23.50;57.90;;;;;;3173750;28;20044;-78
2021/08/07 04:22:28;;;;;;;1.30;1.20;;;23.50;57.90;;;;;;3174271;28;20043;-77
2021/08/07 04:24:00;;;;;;;1.70;1.30;;;23.50;57.80;;;;;;3174115;28;20047;-78
2021/08/07 04:25:31;;;;;;;1.95;1.25;;;23.50;57.70;;;;;;3174032;28;20058;-77
2021/08/07 04:27:03;;;;;;;2.17;1.67;;;23.60;57.60;;;;;;3174251;28;20047;-78
2021/08/07 04:28:35;;;;;;;1.50;1.40;;;23.50;57.60;;;;;;3173520;28;20046;-78
2021/08/07 04:30:08;;;;;;;2.78;1.42;;;23.50;57.90;;;;;;3164285;28;20414;-78
2021/08/07 04:31:41;;;;;;;2.25;1.30;;;23.50;57.70;;;;;;3173048;28;20040;-78
2021/08/07 04:33:12;;;;;;;1.45;1.20;;;23.60;57.60;;;;;;3174181;28;20051;-78
2021/08/07 04:34:44;;;;;;;1.52;1.30;;;23.50;57.70;;;;;;3174111;28;20047;-77
2021/08/07 04:36:16;;;;;;;1.45;1.30;;;23.50;57.80;;;;;;3173444;28;20047;-78
2021/08/07 04:37:48;;;;;;;4.63;1.17;;;23.50;57.90;;;;;;3174280;28;20044;-79
2021/08/07 04:39:20;;;;;;;2.17;1.52;;;23.50;57.90;;;;;;3180114;28;20039;-76
2021/08/07 04:40:51;;;;;;;3.45;1.80;;;23.50;57.80;;;;;;3176669;27;20036;-77
2021/08/07 04:42:23;;;;;;;2.70;1.58;;;23.50;57.80;;;;;;3172635;28;20509;-78
2021/08/07 04:43:54;;;;;;;2.25;1.48;;;23.50;57.80;;;;;;3172615;28;20054;-77
2021/08/07 04:45:26;;;;;;;1.50;1.40;;;23.50;57.90;;;;;;3171254;28;20047;-78
2021/08/07 04:46:59;;;;;;;3.60;1.73;;;23.50;57.80;;;;;;3172401;28;20047;-78
2021/08/07 04:48:31;;;;;;;1.30;1.20;;;23.50;57.90;;;;;;3172639;28;20048;-77
2021/08/07 04:50:03;;;;;;;2.10;1.38;;;23.50;57.80;;;;;;3172775;28;20482;-78
2021/08/07 04:51:34;;;;;;;1.92;1.15;;;23.50;57.80;;;;;;3172109;27;20070;-78
2021/08/07 04:53:07;;;;;;;3.13;1.40;;;23.50;57.90;;;;;;3172751;28;20048;-76
2021/08/07 04:54:37;;;;;;;1.85;1.20;;;23.50;57.90;;;;;;3172854;28;20082;-78
2021/08/07 04:56:09;;;;;;;3.53;1.50;;;23.50;57.80;;;;;;3172034;27;20036;-77
2021/08/07 04:57:41;;;;;;;1.85;1.58;;;23.50;57.80;;;;;;3172888;28;20043;-78
2021/08/07 04:59:12;;;;;;;2.47;1.40;;;23.40;58.00;;;;;;3163332;28;20048;-78
2021/08/07 05:00:44;;;;;;;2.00;1.23;;;23.40;58.20;;;;;;3168024;28;20043;-78
2021/08/07 05:02:17;;;;;;;3.22;1.60;;;23.40;58.20;;;;;;3173153;28;20085;-77
2021/08/07 05:03:48;;;;;;;6.57;1.70;;;23.40;58.20;;;;;;3173003;28;20051;-78
2021/08/07 05:05:20;;;;;;;3.35;1.45;;;23.40;58.20;;;;;;3172589;28;20044;-78
2021/08/07 05:06:52;;;;;;;3.22;1.70;;;23.50;58.20;;;;;;3173146;28;20051;-77
2021/08/07 05:08:23;;;;;;;2.33;1.63;;;23.50;58.20;;;;;;3173130;28;20233;-78
2021/08/07 05:09:55;;;;;;;2.92;1.52;;;23.40;58.20;;;;;;3173979;28;20055;-78
2021/08/07 05:11:27;;;;;;;3.00;1.50;;;23.40;58.20;;;;;;3173412;28;20051;-78
2021/08/07 05:12:58;;;;;;;2.63;1.50;;;23.40;58.10;;;;;;3173910;28;20052;-77
2021/08/07 05:14:30;;;;;;;3.70;1.60;;;23.40;58.40;;;;;;3173912;28;20403;-77
2021/08/07 05:16:02;;;;;;;4.45;1.50;;;23.40;58.20;;;;;;3172601;28;20048;-78
2021/08/07 05:17:35;;;;;;;1.70;1.55;;;23.40;58.20;;;;;;3174548;28;20040;-77
2021/08/07 05:19:06;;;;;;;3.55;1.65;;;23.40;58.30;;;;;;3173743;28;20517;-77
2021/08/07 05:20:38;;;;;;;2.58;1.70;;;23.40;58.30;;;;;;3173542;28;20062;-78
2021/08/07 05:22:08;;;;;;;2.40;1.38;;;23.40;58.50;;;;;;3173900;28;20044;-78
2021/08/07 05:23:40;;;;;;;2.85;1.60;;;23.40;58.40;;;;;;3174184;28;20075;-78
2021/08/07 05:25:14;;;;;;;2.63;1.50;;;23.40;58.50;;;;;;3174094;28;20043;-78
2021/08/07 05:26:46;;;;;;;3.00;1.60;;;23.40;58.50;;;;;;3173650;28;20060;-78
2021/08/07 05:28:18;;;;;;;2.92;1.50;;;23.50;58.30;;;;;;3170240;28;20047;-78
2021/08/07 05:29:49;;;;;;;3.67;1.80;;;23.40;58.30;;;;;;3169357;28;20059;-78
2021/08/07 05:31:21;;;;;;;2.15;1.58;;;23.40;58.50;;;;;;3160152;28;20048;-77
2021/08/07 05:32:54;;;;;;;3.13;1.75;;;23.40;58.40;;;;;;3161416;28;20593;-78
2021/08/07 05:34:26;;;;;;;2.05;1.60;;;23.40;58.50;;;;;;3167803;28;20052;-77
2021/08/07 05:35:57;;;;;;;2.10;1.55;;;23.30;58.60;;;;;;3160150;28;20052;-77
2021/08/07 05:37:30;;;;;;;1.80;1.50;;;23.40;58.60;;;;;;3159562;28;20121;-77
2021/08/07 05:39:02;;;;;;;1.90;1.52;;;23.40;58.50;;;;;;3159751;28;20052;-78
2021/08/07 05:40:33;;;;;;;4.63;1.90;;;23.40;58.60;;;;;;3161294;28;20048;-78
2021/08/07 05:42:05;;;;;;;2.47;1.67;;;23.40;58.60;;;;;;3162303;28;20051;-78
2021/08/07 05:43:37;;;;;;;3.10;1.50;;;23.30;58.60;;;;;;3161953;28;20051;-78
2021/08/07 05:45:09;;;;;;;2.40;1.58;;;23.40;58.80;;;;;;3172163;28;20063;-78
2021/08/07 05:46:41;;;;;;;2.67;1.75;;;23.40;58.80;;;;;;3174577;28;20052;-78
2021/08/07 05:48:14;;;;;;;2.63;1.80;;;23.30;58.70;;;;;;3175099;28;20389;-77
2021/08/07 05:49:46;;;;;;;2.85;2.10;;;23.40;58.70;;;;;;3175867;28;20552;-78
2021/08/07 05:51:17;;;;;;;4.18;2.20;;;23.30;58.90;;;;;;3175407;28;20094;-78
2021/08/07 05:52:49;;;;;;;3.05;2.00;;;23.40;59.20;;;;;;3176088;28;20059;-78
2021/08/07 05:54:21;;;;;;;3.20;1.98;;;23.40;58.90;;;;;;3175813;28;20047;-78
2021/08/07 05:55:53;;;;;;;2.45;1.90;;;23.40;58.90;;;;;;3175456;28;20048;-77
2021/08/07 05:57:25;;;;;;;2.72;1.70;;;23.20;59.10;;;;;;3176141;28;20051;-78
2021/08/07 05:58:57;;;;;;;2.78;1.80;;;23.20;59.20;;;;;;3167630;28;20051;-78
2021/08/07 06:00:29;;;;;;;2.60;1.75;;;23.30;59.30;;;;;;3169373;28;20411;-78
2021/08/07 06:02:02;;;;;;;3.28;1.85;;;23.30;59.00;;;;;;3169589;28;20387;-77
2021/08/07 06:03:35;;;;;;;4.30;1.77;;;23.30;59.20;;;;;;3174557;28;20115;-78
2021/08/07 06:05:08;;;;;;;3.10;1.70;;;23.30;59.10;;;;;;3175006;28;20043;-78
2021/08/07 06:06:39;;;;;;;3.28;1.80;;;23.30;59.20;;;;;;3174336;28;20059;-78
2021/08/07 06:08:11;;;;;;;3.42;1.90;;;23.30;59.20;;;;;;3174787;28;20056;-78
2021/08/07 06:09:41;;;;;;;2.15;1.50;;;23.30;59.30;;;;;;3174940;28;20128;-78
2021/08/07 06:11:14;;;;;;;3.38;1.90;;;23.20;59.20;;;;;;3171327;28;20031;-78
2021/08/07 06:12:46;;;;;;;3.63;1.90;;;23.30;59.30;;;;;;3162743;28;20127;-77
2021/08/07 06:14:17;;;;;;;2.85;1.70;;;23.20;59.60;;;;;;3162742;28;20119;-77
2021/08/07 06:15:49;;;;;;;4.88;1.90;;;23.30;59.50;;;;;;3162206;28;20044;-76
2021/08/07 06:17:20;;;;;;;4.05;2.13;;;23.20;59.40;;;;;;3163375;28;20150;-78
2021/08/07 06:18:53;;;;;;;4.88;2.00;;;23.20;59.50;;;;;;3163072;28;20040;-77
2021/08/07 06:20:24;;;;;;;4.47;1.90;;;23.20;59.60;;;;;;3162370;28;20487;-77
2021/08/07 06:21:56;;;;;;;4.28;1.95;;;23.30;59.50;;;;;;3163195;28;20044;-76
2021/08/07 06:23:28;;;;;;;3.80;2.00;;;23.20;59.50;;;;;;3163118;28;20052;-77
2021/08/07 06:25:01;;;;;;;4.18;1.80;;;23.20;59.50;;;;;;3163081;28;20059;-76
2021/08/07 06:26:32;;;;;;;2.78;1.60;;;23.20;59.70;;;;;;3161922;28;20044;-77
2021/08/07 06:28:04;;;;;;;2.72;1.73;;;23.30;59.50;;;;;;3165815;28;20058;-77
2021/08/07 06:29:36;;;;;;;2.60;1.50;;;23.20;59.60;;;;;;3169004;28;20048;-77
2021/08/07 06:31:09;;;;;;;2.83;1.73;;;23.30;59.70;;;;;;3171154;28;20051;-77
2021/08/07 06:32:40;;;;;;;3.45;1.90;;;23.20;60.00;;;;;;3175192;28;20048;-77
2021/08/07 06:34:13;;;;;;;4.63;1.70;;;23.30;59.90;;;;;;3174856;28;20605;-77
2021/08/07 06:35:45;;;;;;;3.28;1.90;;;23.20;59.80;;;;;;3174279;28;20047;-78
2021/08/07 06:37:17;;;;;;;5.88;1.75;;;23.20;60.30;;;;;;3174590;28;20051;-78
2021/08/07 06:38:48;;;;;;;3.63;2.00;;;23.20;60.30;;;;;;3174794;28;20044;-77
2021/08/07 06:40:20;;;;;;;3.50;1.90;;;23.20;61.00;;;;;;3174218;28;20058;-78
2021/08/07 06:41:52;;;;;;;5.03;1.90;;;23.20;60.20;;;;;;3175216;28;20051;-78
2021/08/07 06:43:23;;;;;;;2.10;1.80;;;23.20;60.20;;;;;;3169128;28;20043;-78
2021/08/07 06:44:55;;;;;;;3.33;1.73;;;23.20;60.50;;;;;;3165966;28;20047;-77
2021/08/07 06:46:26;;;;;;;2.97;1.90;;;23.20;60.20;;;;;;3160547;28;20044;-76
2021/08/07 06:47:58;;;;;;;4.05;1.90;;;23.10;60.30;;;;;;3161994;28;20056;-78
2021/08/07 06:49:31;;;;;;;5.43;2.20;;;23.00;60.90;;;;;;3162439;28;20571;-77
2021/08/07 06:51:03;;;;;;;3.15;2.10;;;23.00;60.70;;;;;;3161055;28;20060;-76
2021/08/07 06:52:35;;;;;;;6.60;2.33;;;23.10;60.90;;;;;;3162242;28;20048;-77
2021/08/07 06:54:06;;;;;;;4.88;2.17;;;23.10;60.70;;;;;;3162279;28;20044;-77
2021/08/07 06:55:38;;;;;;;3.33;2.33;;;23.10;60.60;;;;;;3161546;28;20445;-77
2021/08/07 06:57:10;;;;;;;3.60;2.10;;;23.10;60.60;;;;;;3162072;28;20052;-78
2021/08/07 06:58:42;;;;;;;2.60;2.15;;;23.10;60.60;;;;;;3164412;28;20052;-77
2021/08/07 07:00:14;;;;;;;3.17;1.88;;;23.00;60.90;;;;;;3169724;28;20047;-77
2021/08/07 07:01:48;;;;;;;;;;;23.10;60.80;;;;;;3162294;28;20563;-78
2021/08/07 07:03:20;;;;;;;6.10;2.10;;;23.20;60.50;;;;;;3162259;28;19927;-78
2021/08/07 07:04:53;;;;;;;3.25;1.90;;;23.20;60.50;;;;;;3161977;28;20052;-77
2021/08/07 07:06:25;;;;;;;2.58;2.08;;;23.30;60.10;;;;;;3161772;28;20052;-77
2021/08/07 07:07:56;;;;;;;5.07;2.20;;;23.20;60.50;;;;;;3161808;28;20415;-78
2021/08/07 07:09:28;;;;;;;4.45;2.17;;;23.20;60.40;;;;;;3161980;28;20055;-77
2021/08/07 07:11:00;;;;;;;1.85;1.67;;;23.10;60.60;;;;;;3161776;28;20052;-77
2021/08/07 07:12:31;;;;;;;2.63;2.00;;;23.20;60.50;;;;;;3162019;28;20040;-77
2021/08/07 07:14:03;;;;;;;3.97;1.90;;;23.20;60.50;;;;;;3161735;28;20048;-77
2021/08/07 07:15:36;;;;;;;2.90;2.03;;;23.10;60.60;;;;;;3160030;28;20513;-77
2021/08/07 07:17:07;;;;;;;3.72;2.00;;;23.00;61.10;;;;;;3161456;28;20053;-77
2021/08/07 07:18:39;;;;;;;6.25;2.10;;;23.10;61.00;;;;;;3162312;28;20052;-76
2021/08/07 07:20:13;;;;;;;5.28;2.20;;;23.10;61.00;;;;;;3181257;28;20027;-76
2021/08/07 07:21:45;;;;;;;3.03;1.90;;;22.90;62.00;;;;;;3173219;28;20052;-76
2021/08/07 07:23:17;;;;;;;4.60;2.00;;;23.00;61.20;;;;;;3173239;28;20043;-76
2021/08/07 07:24:48;;;;;;;7.47;1.98;;;23.00;61.10;;;;;;3173148;28;20061;-74
2021/08/07 07:26:21;;;;;;;3.92;1.88;;;23.00;61.50;;;;;;3173380;28;20694;-77
2021/08/07 07:27:53;;;;;;;4.63;2.25;;;23.10;61.30;;;;;;3173489;28;20051;-77
2021/08/07 07:29:25;;;;;;;5.22;1.98;;;23.10;61.40;;;;;;3168812;28;20044;-76
2021/08/07 07:30:56;;;;;;;2.60;1.85;;;23.20;61.00;;;;;;3168399;28;20055;-76
2021/08/07 07:32:28;;;;;;;4.80;1.90;;;23.10;60.90;;;;;;3173710;28;20051;-77
2021/08/07 07:34:00;;;;;;;6.32;2.30;;;23.10;61.30;;;;;;3173854;28;20058;-77
2021/08/07 07:35:33;;;;;;;3.23;1.90;;;23.10;61.40;;;;;;3173302;28;20093;-77
2021/08/07 07:37:06;;;;;;;3.78;2.20;;;23.20;61.00;;;;;;3173810;28;20760;-77
2021/08/07 07:38:37;;;;;;;;;;;23.00;61.50;;;;;;3174920;28;20051;-77
2021/08/07 07:40:11;;;;;;;3.80;1.90;;;23.10;61.50;;;;;;3174262;28;19932;-77
2021/08/07 07:41:42;;;;;;;2.75;1.80;;;23.10;61.40;;;;;;3173478;28;20052;-77
2021/08/07 07:43:15;;;;;;;5.28;2.30;;;23.10;61.50;;;;;;3174195;28;20048;-77
2021/08/07 07:44:46;;;;;;;3.80;2.03;;;23.10;61.50;;;;;;3170261;28;20098;-77
2021/08/07 07:46:18;;;;;;;5.25;2.28;;;23.10;61.30;;;;;;3159264;28;20040;-77
2021/08/07 07:47:50;;;;;;;5.47;2.10;;;23.20;61.20;;;;;;3160378;28;20048;-76
2021/08/07 07:49:22;;;;;;;5.63;2.38;;;23.20;61.00;;;;;;3160615;28;20048;-78
2021/08/07 07:50:55;;;;;;;3.53;1.85;;;23.20;61.10;;;;;;3159803;28;20059;-77
2021/08/07 07:52:27;;;;;;;2.83;1.70;;;23.30;60.80;;;;;;3164522;28;20044;-78
2021/08/07 07:53:59;;;;;;;6.97;2.55;;;23.20;60.60;;;;;;3172893;28;20471;-78
2021/08/07 07:55:31;;;;;;;4.65;1.63;;;23.20;60.70;;;;;;3172407;28;20036;-77
2021/08/07 07:57:03;;;;;;;3.80;2.10;;;23.20;61.20;;;;;;3164908;28;20052;-77
2021/08/07 07:58:35;;;;;;;5.70;2.05;;;23.10;61.40;;;;;;3167289;28;20069;-77
2021/08/07 08:00:08;;;;;;;4.10;2.03;;;23.20;61.10;;;;;;3161737;28;20059;-78
2021/08/07 08:01:40;;;;;;;;;;;23.20;61.00;;;;;;3173084;28;20690;-78
2021/08/07 08:03:11;;;;;;;3.17;1.73;;;23.10;61.70;;;;;;3172931;28;20350;-78
2021/08/07 08:04:43;;;;;;;4.70;1.85;;;23.00;61.50;;;;;;3174039;28;20135;-78
2021/08/07 08:06:16;;;;;;;4.45;1.85;;;23.20;61.50;;;;;;3173649;28;20078;-78
2021/08/07 08:07:48;;;;;;;3.63;1.90;;;23.20;61.30;;;;;;3161369;28;20051;-77
2021/08/07 08:09:20;;;;;;;6.00;2.00;;;23.20;61.10;;;;;;3163653;28;20155;-78
2021/08/07 08:10:53;;;;;;;3.22;1.67;;;23.20;61.00;;;;;;3169745;28;20051;-76
2021/08/07 08:12:24;;;;;;;2.90;1.60;;;23.20;60.70;;;;;;3161436;28;20052;-77
2021/08/07 08:13:56;;;;;;;4.68;1.60;;;23.10;61.10;;;;;;3160259;28;20048;-76
2021/08/07 08:15:28;;;;;;;4.22;1.88;;;23.10;61.40;;;;;;3158472;28;20046;-76
2021/08/07 08:17:00;;;;;;;2.67;1.65;;;23.00;61.50;;;;;;3159963;28;20047;-77
2021/08/07 08:18:32;;;;;;;10.50;2.22;;;23.10;61.20;;;;;;3159694;28;20089;-76
2021/08/07 08:20:04;;;;;;;3.95;2.03;;;23.10;61.10;;;;;;3160026;28;20549;-76
2021/08/07 08:21:37;;;;;;;3.67;2.05;;;23.20;60.90;;;;;;3158989;28;20048;-76
2021/08/07 08:23:09;;;;;;;2.95;1.77;;;23.10;60.80;;;;;;3159765;28;20102;-78
2021/08/07 08:24:41;;;;;;;3.43;1.77;;;23.10;60.90;;;;;;3159667;28;20139;-77